Morehead City, NC

8:25 AM EDT on July 07, 2015 (GMT -0400)
Leeloo Station - Fisher St | | Change Station
CLOSE
Current Station
Personal Weather Station
Location: Morehead City, NC
Elevation: 26 ft
Nearby Weather Stations

Elev 26 ft 34.72 °N, 76.73 °W | Updated 6 minutes ago

Partly Cloudy
Partly Cloudy
81.9 °F
Feels Like 87 °F
N
5.3
Wind Variable Wind from SW

Today
High -- | Low -- °F
--% Chance of Precip.
Yesterday
High -- | Low -- °F
Precip. -- in
6:00 AM 8:23 PM
Waning Gibbous, 65% visible
Pressure 30.15 in
Visibility 10.0 miles
Clouds Clear
Heat Index 87 °F
Dew Point 72 °F
Humidity 73%
Rainfall 0.00 in
Snow Depth Not available.
UV 2 out of 12
Pollen 3.30 out of 12
Air Quality Not available.
Flu Activity Not available.
METAR KMRH 071158Z AUTO 23010KT 10SM CLR 27/23 A3015 RMK AO2 SLP208 T02670228 10267 20256 51011 TSNO

More Conditions Fewer Conditions

Pressure 30.15 in
Visibility 10.0 miles
Clouds Clear
Heat Index 87 °F
Dew Point 72 °F
Humidity 73%
Rainfall 0.00 in
Snow Depth Not available.
UV 2 out of 12
Pollen 3.30 out of 12
Air Quality Not available.
Flu Activity Not available.
METAR KMRH 071158Z AUTO 23010KT 10SM CLR 27/23 A3015 RMK AO2 SLP208 T02670228 10267 20256 51011 TSNO

More Conditions Fewer Conditions

10-Day Weather Forecast

×

Almanac

Astronomy

Jul. 07, 2015 Rise Set
Actual Time
Civil Twilight
Nautical Twilight
Astronomical Twilight
Moon
Length of Visible Light
Length of Day
Tomorrow will be .
, % of the Moon is Illuminated

Today's Extremes

State Highs State Lows

Community

WunderPhotos

Upload Photos

1,835,785 photos uploaded!

WunderBlogs® & News

Nearby

Air Quality

  Air Quality AQ Index Pollutant
Not available.

Snow Depth

Station Depth Elevation

Earthquake Activity

City Distance Mag. Time & Date
Minimum magnitude displayed is 2.5.

Coastal Water Temperatures

Place Temperature

Stations

Nearby Weather Stations

Station Location Temp. Windchill Dew Point Humidity Wind Precip. Elev Updated Type